Tulln, Austria
Current Conditions -  °F | °C
As of 2:20 PM on Thursday 29 Jan 2015 (Local Time) from LOXT Reporting Station
Broken Clouds Broken Clouds  
Wind Chill: 32°   Ceiling: 11000
Heat Index: 39°   Visibility: 25mi
Dew Point: 30°   Wind: 13mph
Humidity: 70%   Direction: 230°SW
Pressure: 29.47"   Gusts: NA
Location:  48.33°N, 16.06°E
Report Text: LOXT 291220Z 23011KT 200V260 40KM FEW030SC SCT060SC BKN110AS 04/M01 Q0998 NOSIG RMK BKN
Loading
Personal Weather Stations






























Interactive Weather Map New forecast layout! Learn more

10-Day Weather Forecast

Advertisements
Track Severe Weather on mobile